sensor_id;sensor_type;location;lat;lon;timestamp;P1;durP1;ratioP1;P2;durP2;ratioP2
2618;SDS011;1319;52.346;13.096;2023-03-01T00:01:23;14.43;;;6.40;;
2618;SDS011;1319;52.346;13.096;2023-03-01T00:03:48;18.67;;;6.27;;
2618;SDS011;1319;52.346;13.096;2023-03-01T00:06:14;12.73;;;6.37;;
2618;SDS011;1319;52.346;13.096;2023-03-01T00:08:39;11.53;;;6.63;;
2618;SDS011;1319;52.346;13.096;2023-03-01T00:13:30;14.10;;;6.80;;
2618;SDS011;1319;52.346;13.096;2023-03-01T00:15:55;11.77;;;6.77;;
2618;SDS011;1319;52.346;13.096;2023-03-01T00:18:20;13.37;;;6.80;;
2618;SDS011;1319;52.346;13.096;2023-03-01T00:20:50;12.97;;;6.53;;
2618;SDS011;1319;52.346;13.096;2023-03-01T00:23:16;14.03;;;7.07;;
2618;SDS011;1319;52.346;13.096;2023-03-01T00:25:42;12.97;;;6.93;;
2618;SDS011;1319;52.346;13.096;2023-03-01T00:28:07;11.73;;;6.27;;
2618;SDS011;1319;52.346;13.096;2023-03-01T00:30:32;16.00;;;7.30;;
2618;SDS011;1319;52.346;13.096;2023-03-01T00:32:57;15.10;;;7.33;;
2618;SDS011;1319;52.346;13.096;2023-03-01T00:35:23;14.83;;;7.23;;
2618;SDS011;1319;52.346;13.096;2023-03-01T00:37:48;16.53;;;6.90;;
2618;SDS011;1319;52.346;13.096;2023-03-01T00:40:18;13.87;;;7.17;;
2618;SDS011;1319;52.346;13.096;2023-03-01T00:42:43;13.73;;;6.73;;
2618;SDS011;1319;52.346;13.096;2023-03-01T00:45:08;12.27;;;6.73;;
2618;SDS011;1319;52.346;13.096;2023-03-01T00:47:34;12.40;;;6.47;;
2618;SDS011;1319;52.346;13.096;2023-03-01T00:49:59;16.80;;;6.70;;
2618;SDS011;1319;52.346;13.096;2023-03-01T00:52:24;18.23;;;7.43;;
2618;SDS011;1319;52.346;13.096;2023-03-01T00:54:51;17.50;;;7.53;;
2618;SDS011;1319;52.346;13.096;2023-03-01T00:57:16;14.50;;;7.40;;
2618;SDS011;1319;52.346;13.096;2023-03-01T00:59:42;12.67;;;7.20;;
2618;SDS011;1319;52.346;13.096;2023-03-01T01:02:07;14.93;;;7.20;;
2618;SDS011;1319;52.346;13.096;2023-03-01T01:04:32;17.40;;;7.87;;
2618;SDS011;1319;52.346;13.096;2023-03-01T01:06:57;15.63;;;7.40;;
2618;SDS011;1319;52.346;13.096;2023-03-01T01:09:23;16.00;;;7.73;;
2618;SDS011;1319;52.346;13.096;2023-03-01T01:11:49;19.00;;;7.90;;
2618;SDS011;1319;52.346;13.096;2023-03-01T01:14:14;13.50;;;7.30;;
2618;SDS011;1319;52.346;13.096;2023-03-01T01:16:40;16.13;;;7.07;;
2618;SDS011;1319;52.346;13.096;2023-03-01T01:19:06;12.07;;;6.73;;
2618;SDS011;1319;52.346;13.096;2023-03-01T01:21:31;14.73;;;6.77;;
2618;SDS011;1319;52.346;13.096;2023-03-01T01:23:56;15.70;;;6.97;;
2618;SDS011;1319;52.346;13.096;2023-03-01T01:26:23;15.93;;;6.90;;
2618;SDS011;1319;52.346;13.096;2023-03-01T01:28:48;14.70;;;7.30;;
2618;SDS011;1319;52.346;13.096;2023-03-01T01:31:14;18.00;;;7.83;;
2618;SDS011;1319;52.346;13.096;2023-03-01T01:33:39;15.70;;;6.93;;
2618;SDS011;1319;52.346;13.096;2023-03-01T01:36:05;16.40;;;6.83;;
2618;SDS011;1319;52.346;13.096;2023-03-01T01:38:30;13.03;;;7.03;;
2618;SDS011;1319;52.346;13.096;2023-03-01T01:40:56;18.17;;;7.77;;
2618;SDS011;1319;52.346;13.096;2023-03-01T01:43:25;16.67;;;6.73;;
2618;SDS011;1319;52.346;13.096;2023-03-01T01:45:52;12.70;;;7.23;;
2618;SDS011;1319;52.346;13.096;2023-03-01T01:48:20;13.10;;;7.73;;
2618;SDS011;1319;52.346;13.096;2023-03-01T01:50:49;16.73;;;7.43;;
2618;SDS011;1319;52.346;13.096;2023-03-01T01:53:16;18.07;;;8.23;;
2618;SDS011;1319;52.346;13.096;2023-03-01T01:55:44;18.23;;;9.43;;
2618;SDS011;1319;52.346;13.096;2023-03-01T01:58:11;20.07;;;9.10;;
2618;SDS011;1319;52.346;13.096;2023-03-01T02:00:37;17.13;;;8.30;;
2618;SDS011;1319;52.346;13.096;2023-03-01T02:03:03;20.13;;;8.60;;
2618;SDS011;1319;52.346;13.096;2023-03-01T02:08:04;21.63;;;9.70;;
2618;SDS011;1319;52.346;13.096;2023-03-01T02:10:29;20.17;;;9.83;;
2618;SDS011;1319;52.346;13.096;2023-03-01T02:12:58;19.37;;;9.67;;
2618;SDS011;1319;52.346;13.096;2023-03-01T02:15:23;20.17;;;8.97;;
2618;SDS011;1319;52.346;13.096;2023-03-01T02:17:49;15.17;;;8.43;;
2618;SDS011;1319;52.346;13.096;2023-03-01T02:22:43;17.30;;;8.47;;
2618;SDS011;1319;52.346;13.096;2023-03-01T02:25:28;20.37;;;8.40;;
2618;SDS011;1319;52.346;13.096;2023-03-01T02:27:58;21.10;;;9.47;;
2618;SDS011;1319;52.346;13.096;2023-03-01T02:30:27;20.67;;;9.60;;
2618;SDS011;1319;52.346;13.096;2023-03-01T02:32:53;20.03;;;8.90;;
2618;SDS011;1319;52.346;13.096;2023-03-01T02:35:21;19.87;;;8.90;;
2618;SDS011;1319;52.346;13.096;2023-03-01T02:37:47;17.27;;;9.10;;
2618;SDS011;1319;52.346;13.096;2023-03-01T02:40:16;18.93;;;8.97;;
2618;SDS011;1319;52.346;13.096;2023-03-01T02:42:47;19.57;;;9.70;;
2618;SDS011;1319;52.346;13.096;2023-03-01T02:45:13;19.27;;;9.43;;
2618;SDS011;1319;52.346;13.096;2023-03-01T02:47:39;20.50;;;9.20;;
2618;SDS011;1319;52.346;13.096;2023-03-01T02:50:10;20.87;;;10.10;;
2618;SDS011;1319;52.346;13.096;2023-03-01T02:52:41;18.87;;;9.40;;
2618;SDS011;1319;52.346;13.096;2023-03-01T02:55:15;18.40;;;9.57;;
2618;SDS011;1319;52.346;13.096;2023-03-01T02:57:43;17.97;;;8.37;;
2618;SDS011;1319;52.346;13.096;2023-03-01T03:00:12;20.33;;;9.43;;
2618;SDS011;1319;52.346;13.096;2023-03-01T03:02:44;19.30;;;8.70;;
2618;SDS011;1319;52.346;13.096;2023-03-01T03:05:10;16.97;;;8.80;;
2618;SDS011;1319;52.346;13.096;2023-03-01T03:07:36;18.93;;;9.40;;
2618;SDS011;1319;52.346;13.096;2023-03-01T03:10:03;17.80;;;8.67;;
2618;SDS011;1319;52.346;13.096;2023-03-01T03:12:28;19.17;;;8.97;;
2618;SDS011;1319;52.346;13.096;2023-03-01T03:14:54;19.30;;;9.40;;
2618;SDS011;1319;52.346;13.096;2023-03-01T03:17:19;18.90;;;8.57;;
2618;SDS011;1319;52.346;13.096;2023-03-01T03:19:44;19.53;;;9.33;;
2618;SDS011;1319;52.346;13.096;2023-03-01T03:22:10;21.80;;;8.63;;
2618;SDS011;1319;52.346;13.096;2023-03-01T03:24:36;19.47;;;8.60;;
2618;SDS011;1319;52.346;13.096;2023-03-01T03:27:03;17.13;;;8.30;;
2618;SDS011;1319;52.346;13.096;2023-03-01T03:29:28;18.70;;;8.67;;
2618;SDS011;1319;52.346;13.096;2023-03-01T03:31:54;17.07;;;8.03;;
2618;SDS011;1319;52.346;13.096;2023-03-01T03:34:19;20.10;;;8.70;;
2618;SDS011;1319;52.346;13.096;2023-03-01T03:36:44;17.50;;;8.47;;
2618;SDS011;1319;52.346;13.096;2023-03-01T03:39:09;14.40;;;7.90;;
2618;SDS011;1319;52.346;13.096;2023-03-01T03:41:35;15.17;;;8.60;;
2618;SDS011;1319;52.346;13.096;2023-03-01T03:44:00;16.77;;;8.20;;
2618;SDS011;1319;52.346;13.096;2023-03-01T03:46:25;17.23;;;8.80;;
2618;SDS011;1319;52.346;13.096;2023-03-01T03:48:51;15.90;;;8.10;;
2618;SDS011;1319;52.346;13.096;2023-03-01T03:51:17;14.43;;;7.83;;
2618;SDS011;1319;52.346;13.096;2023-03-01T03:53:43;18.23;;;8.50;;
2618;SDS011;1319;52.346;13.096;2023-03-01T03:56:08;20.00;;;8.00;;
2618;SDS011;1319;52.346;13.096;2023-03-01T03:58:34;17.03;;;7.93;;
2618;SDS011;1319;52.346;13.096;2023-03-01T04:00:59;17.47;;;8.23;;
2618;SDS011;1319;52.346;13.096;2023-03-01T04:03:26;15.57;;;8.03;;
2618;SDS011;1319;52.346;13.096;2023-03-01T04:05:52;20.37;;;8.57;;
2618;SDS011;1319;52.346;13.096;2023-03-01T04:08:18;13.33;;;7.27;;
2618;SDS011;1319;52.346;13.096;2023-03-01T04:10:45;22.53;;;8.33;;
2618;SDS011;1319;52.346;13.096;2023-03-01T04:13:12;15.67;;;8.37;;
2618;SDS011;1319;52.346;13.096;2023-03-01T04:15:37;17.17;;;8.07;;
2618;SDS011;1319;52.346;13.096;2023-03-01T04:18:03;15.63;;;7.53;;
2618;SDS011;1319;52.346;13.096;2023-03-01T04:20:29;16.23;;;7.70;;
2618;SDS011;1319;52.346;13.096;2023-03-01T04:23:00;18.77;;;7.70;;
2618;SDS011;1319;52.346;13.096;2023-03-01T04:25:48;16.50;;;8.17;;
2618;SDS011;1319;52.346;13.096;2023-03-01T04:28:22;18.53;;;8.47;;
2618;SDS011;1319;52.346;13.096;2023-03-01T04:30:49;15.77;;;7.80;;
2618;SDS011;1319;52.346;13.096;2023-03-01T04:33:15;14.90;;;7.97;;
2618;SDS011;1319;52.346;13.096;2023-03-01T04:35:40;17.97;;;8.37;;
2618;SDS011;1319;52.346;13.096;2023-03-01T04:38:05;18.70;;;8.53;;
2618;SDS011;1319;52.346;13.096;2023-03-01T04:40:31;17.70;;;7.77;;
2618;SDS011;1319;52.346;13.096;2023-03-01T04:42:56;17.83;;;7.93;;
2618;SDS011;1319;52.346;13.096;2023-03-01T04:45:21;18.47;;;8.23;;
2618;SDS011;1319;52.346;13.096;2023-03-01T04:47:47;20.27;;;9.37;;
2618;SDS011;1319;52.346;13.096;2023-03-01T04:50:13;17.67;;;8.80;;
2618;SDS011;1319;52.346;13.096;2023-03-01T04:52:39;18.40;;;9.03;;
2618;SDS011;1319;52.346;13.096;2023-03-01T04:55:04;16.60;;;8.87;;
2618;SDS011;1319;52.346;13.096;2023-03-01T04:57:30;18.00;;;8.80;;
2618;SDS011;1319;52.346;13.096;2023-03-01T04:59:55;18.03;;;8.73;;
2618;SDS011;1319;52.346;13.096;2023-03-01T05:02:21;18.77;;;8.73;;
2618;SDS011;1319;52.346;13.096;2023-03-01T05:04:46;22.07;;;8.57;;
2618;SDS011;1319;52.346;13.096;2023-03-01T05:07:11;17.23;;;8.63;;
2618;SDS011;1319;52.346;13.096;2023-03-01T05:09:38;20.57;;;9.20;;
2618;SDS011;1319;52.346;13.096;2023-03-01T05:12:03;16.60;;;8.70;;
2618;SDS011;1319;52.346;13.096;2023-03-01T05:14:28;21.83;;;9.03;;
2618;SDS011;1319;52.346;13.096;2023-03-01T05:16:54;21.60;;;9.27;;
2618;SDS011;1319;52.346;13.096;2023-03-01T05:19:19;18.07;;;9.30;;
2618;SDS011;1319;52.346;13.096;2023-03-01T05:21:47;18.97;;;9.60;;
2618;SDS011;1319;52.346;13.096;2023-03-01T05:24:32;20.60;;;8.63;;
2618;SDS011;1319;52.346;13.096;2023-03-01T05:26:57;16.83;;;8.27;;
2618;SDS011;1319;52.346;13.096;2023-03-01T05:29:23;19.77;;;8.83;;
2618;SDS011;1319;52.346;13.096;2023-03-01T05:31:52;19.77;;;9.63;;
2618;SDS011;1319;52.346;13.096;2023-03-01T05:34:18;20.43;;;8.93;;
2618;SDS011;1319;52.346;13.096;2023-03-01T05:36:44;15.90;;;8.17;;
2618;SDS011;1319;52.346;13.096;2023-03-01T05:39:09;19.27;;;8.87;;
2618;SDS011;1319;52.346;13.096;2023-03-01T05:41:34;18.93;;;8.30;;
2618;SDS011;1319;52.346;13.096;2023-03-01T05:44:00;15.57;;;8.17;;
2618;SDS011;1319;52.346;13.096;2023-03-01T05:46:25;19.40;;;8.10;;
2618;SDS011;1319;52.346;13.096;2023-03-01T05:48:50;18.67;;;8.57;;
2618;SDS011;1319;52.346;13.096;2023-03-01T05:51:15;18.87;;;8.00;;
2618;SDS011;1319;52.346;13.096;2023-03-01T05:53:40;17.67;;;8.10;;
2618;SDS011;1319;52.346;13.096;2023-03-01T05:56:06;18.77;;;8.93;;
2618;SDS011;1319;52.346;13.096;2023-03-01T05:58:31;19.30;;;9.33;;
2618;SDS011;1319;52.346;13.096;2023-03-01T06:00:57;17.87;;;8.80;;
2618;SDS011;1319;52.346;13.096;2023-03-01T06:03:22;21.80;;;8.73;;
2618;SDS011;1319;52.346;13.096;2023-03-01T06:05:47;20.03;;;9.10;;
2618;SDS011;1319;52.346;13.096;2023-03-01T06:08:13;19.30;;;8.67;;
2618;SDS011;1319;52.346;13.096;2023-03-01T06:10:40;17.93;;;9.00;;
2618;SDS011;1319;52.346;13.096;2023-03-01T06:13:05;16.60;;;8.53;;
2618;SDS011;1319;52.346;13.096;2023-03-01T06:15:30;20.03;;;8.30;;
2618;SDS011;1319;52.346;13.096;2023-03-01T06:17:56;18.73;;;9.27;;
2618;SDS011;1319;52.346;13.096;2023-03-01T06:20:24;17.27;;;8.60;;
2618;SDS011;1319;52.346;13.096;2023-03-01T06:22:50;20.77;;;9.50;;
2618;SDS011;1319;52.346;13.096;2023-03-01T06:25:20;16.63;;;8.10;;
2618;SDS011;1319;52.346;13.096;2023-03-01T06:27:46;17.80;;;8.77;;
2618;SDS011;1319;52.346;13.096;2023-03-01T06:30:12;21.07;;;9.27;;
2618;SDS011;1319;52.346;13.096;2023-03-01T06:32:39;19.70;;;9.40;;
2618;SDS011;1319;52.346;13.096;2023-03-01T06:35:06;21.23;;;9.17;;
2618;SDS011;1319;52.346;13.096;2023-03-01T06:37:32;19.67;;;8.73;;
2618;SDS011;1319;52.346;13.096;2023-03-01T06:39:57;16.87;;;9.10;;
2618;SDS011;1319;52.346;13.096;2023-03-01T06:42:22;20.37;;;9.20;;
2618;SDS011;1319;52.346;13.096;2023-03-01T06:44:47;22.77;;;9.50;;
2618;SDS011;1319;52.346;13.096;2023-03-01T06:47:13;22.67;;;9.73;;
2618;SDS011;1319;52.346;13.096;2023-03-01T06:49:38;21.13;;;9.47;;
2618;SDS011;1319;52.346;13.096;2023-03-01T06:52:03;22.33;;;10.83;;
2618;SDS011;1319;52.346;13.096;2023-03-01T06:54:28;26.47;;;10.33;;
2618;SDS011;1319;52.346;13.096;2023-03-01T06:56:53;21.97;;;10.73;;
2618;SDS011;1319;52.346;13.096;2023-03-01T06:59:19;24.00;;;10.03;;
2618;SDS011;1319;52.346;13.096;2023-03-01T07:01:44;24.43;;;10.27;;
2618;SDS011;1319;52.346;13.096;2023-03-01T07:04:10;19.73;;;10.03;;
2618;SDS011;1319;52.346;13.096;2023-03-01T07:06:35;25.80;;;10.90;;
2618;SDS011;1319;52.346;13.096;2023-03-01T07:09:00;21.17;;;10.13;;
2618;SDS011;1319;52.346;13.096;2023-03-01T07:11:25;20.57;;;10.80;;
2618;SDS011;1319;52.346;13.096;2023-03-01T07:13:51;21.87;;;10.70;;
2618;SDS011;1319;52.346;13.096;2023-03-01T07:16:16;21.13;;;10.57;;
2618;SDS011;1319;52.346;13.096;2023-03-01T07:18:41;25.97;;;12.30;;
2618;SDS011;1319;52.346;13.096;2023-03-01T07:21:07;22.57;;;11.33;;
2618;SDS011;1319;52.346;13.096;2023-03-01T07:23:33;25.53;;;10.57;;
2618;SDS011;1319;52.346;13.096;2023-03-01T07:25:58;22.20;;;11.10;;
2618;SDS011;1319;52.346;13.096;2023-03-01T07:28:23;20.00;;;10.70;;
2618;SDS011;1319;52.346;13.096;2023-03-01T07:30:49;27.17;;;12.17;;
2618;SDS011;1319;52.346;13.096;2023-03-01T07:33:14;26.97;;;11.97;;
2618;SDS011;1319;52.346;13.096;2023-03-01T07:35:39;22.70;;;11.93;;
2618;SDS011;1319;52.346;13.096;2023-03-01T07:38:04;25.67;;;12.73;;
2618;SDS011;1319;52.346;13.096;2023-03-01T07:40:30;26.50;;;12.53;;
2618;SDS011;1319;52.346;13.096;2023-03-01T07:42:58;30.53;;;12.70;;
2618;SDS011;1319;52.346;13.096;2023-03-01T07:45:23;34.20;;;14.30;;
2618;SDS011;1319;52.346;13.096;2023-03-01T07:47:50;30.23;;;13.90;;
2618;SDS011;1319;52.346;13.096;2023-03-01T07:50:15;31.87;;;14.00;;
2618;SDS011;1319;52.346;13.096;2023-03-01T07:52:40;27.50;;;13.47;;
2618;SDS011;1319;52.346;13.096;2023-03-01T07:55:06;33.13;;;15.83;;
2618;SDS011;1319;52.346;13.096;2023-03-01T07:57:31;31.67;;;14.73;;
2618;SDS011;1319;52.346;13.096;2023-03-01T07:59:56;33.27;;;14.93;;
2618;SDS011;1319;52.346;13.096;2023-03-01T08:02:21;27.33;;;14.10;;
2618;SDS011;1319;52.346;13.096;2023-03-01T08:04:47;34.10;;;16.10;;
2618;SDS011;1319;52.346;13.096;2023-03-01T08:07:12;28.97;;;15.67;;
2618;SDS011;1319;52.346;13.096;2023-03-01T08:09:37;31.73;;;15.63;;
2618;SDS011;1319;52.346;13.096;2023-03-01T08:12:03;33.43;;;16.60;;
2618;SDS011;1319;52.346;13.096;2023-03-01T08:14:29;34.20;;;16.47;;
2618;SDS011;1319;52.346;13.096;2023-03-01T08:16:54;32.20;;;15.97;;
2618;SDS011;1319;52.346;13.096;2023-03-01T08:19:20;30.93;;;14.53;;
2618;SDS011;1319;52.346;13.096;2023-03-01T08:21:45;26.63;;;15.50;;
2618;SDS011;1319;52.346;13.096;2023-03-01T08:24:10;30.47;;;16.27;;
2618;SDS011;1319;52.346;13.096;2023-03-01T08:26:36;28.73;;;15.30;;
2618;SDS011;1319;52.346;13.096;2023-03-01T08:29:01;27.30;;;14.93;;
2618;SDS011;1319;52.346;13.096;2023-03-01T08:31:31;25.43;;;14.03;;
2618;SDS011;1319;52.346;13.096;2023-03-01T08:33:58;30.53;;;13.73;;
2618;SDS011;1319;52.346;13.096;2023-03-01T08:36:25;26.60;;;13.23;;
2618;SDS011;1319;52.346;13.096;2023-03-01T08:38:51;28.80;;;12.77;;
2618;SDS011;1319;52.346;13.096;2023-03-01T08:41:16;25.67;;;12.30;;
2618;SDS011;1319;52.346;13.096;2023-03-01T08:43:41;22.70;;;12.53;;
2618;SDS011;1319;52.346;13.096;2023-03-01T08:46:07;19.53;;;12.40;;
2618;SDS011;1319;52.346;13.096;2023-03-01T08:48:32;20.30;;;12.40;;
2618;SDS011;1319;52.346;13.096;2023-03-01T08:51:06;24.60;;;11.60;;
2618;SDS011;1319;52.346;13.096;2023-03-01T08:53:31;21.40;;;11.83;;
2618;SDS011;1319;52.346;13.096;2023-03-01T08:55:59;22.20;;;12.17;;
2618;SDS011;1319;52.346;13.096;2023-03-01T08:58:24;17.63;;;10.93;;
2618;SDS011;1319;52.346;13.096;2023-03-01T09:00:49;19.53;;;10.57;;
2618;SDS011;1319;52.346;13.096;2023-03-01T09:03:14;20.77;;;10.00;;
2618;SDS011;1319;52.346;13.096;2023-03-01T09:05:40;20.10;;;9.50;;
2618;SDS011;1319;52.346;13.096;2023-03-01T09:08:05;19.47;;;9.57;;
2618;SDS011;1319;52.346;13.096;2023-03-01T09:10:30;14.43;;;9.57;;
2618;SDS011;1319;52.346;13.096;2023-03-01T09:12:55;15.73;;;9.90;;
2618;SDS011;1319;52.346;13.096;2023-03-01T09:15:21;13.20;;;7.93;;
2618;SDS011;1319;52.346;13.096;2023-03-01T09:17:46;14.37;;;8.50;;
2618;SDS011;1319;52.346;13.096;2023-03-01T09:20:11;12.20;;;8.33;;
2618;SDS011;1319;52.346;13.096;2023-03-01T09:22:37;15.63;;;8.60;;
2618;SDS011;1319;52.346;13.096;2023-03-01T09:25:02;13.37;;;7.60;;
2618;SDS011;1319;52.346;13.096;2023-03-01T09:27:27;10.00;;;7.57;;
2618;SDS011;1319;52.346;13.096;2023-03-01T09:29:52;9.83;;;7.77;;
2618;SDS011;1319;52.346;13.096;2023-03-01T09:32:17;14.40;;;8.10;;
2618;SDS011;1319;52.346;13.096;2023-03-01T09:34:43;12.63;;;7.40;;
2618;SDS011;1319;52.346;13.096;2023-03-01T09:37:28;9.47;;;7.03;;
2618;SDS011;1319;52.346;13.096;2023-03-01T09:39:53;9.97;;;6.83;;
2618;SDS011;1319;52.346;13.096;2023-03-01T09:42:19;11.03;;;6.63;;
2618;SDS011;1319;52.346;13.096;2023-03-01T09:47:29;10.50;;;6.43;;
2618;SDS011;1319;52.346;13.096;2023-03-01T09:55:11;9.00;;;5.60;;
2618;SDS011;1319;52.346;13.096;2023-03-01T09:57:47;7.73;;;5.60;;
2618;SDS011;1319;52.346;13.096;2023-03-01T10:02:48;10.50;;;6.13;;
2618;SDS011;1319;52.346;13.096;2023-03-01T10:07:45;8.37;;;5.30;;
2618;SDS011;1319;52.346;13.096;2023-03-01T10:10:25;8.60;;;5.83;;
2618;SDS011;1319;52.346;13.096;2023-03-01T10:12:51;6.77;;;5.43;;
2618;SDS011;1319;52.346;13.096;2023-03-01T10:15:18;9.43;;;5.03;;
2618;SDS011;1319;52.346;13.096;2023-03-01T10:20:17;8.67;;;5.90;;
2618;SDS011;1319;52.346;13.096;2023-03-01T10:22:42;10.23;;;5.97;;
2618;SDS011;1319;52.346;13.096;2023-03-01T10:25:13;9.97;;;5.97;;
2618;SDS011;1319;52.346;13.096;2023-03-01T10:32:41;9.87;;;5.87;;
2618;SDS011;1319;52.346;13.096;2023-03-01T10:35:25;8.30;;;5.77;;
2618;SDS011;1319;52.346;13.096;2023-03-01T10:40:28;9.07;;;5.20;;
2618;SDS011;1319;52.346;13.096;2023-03-01T10:42:54;8.10;;;5.37;;
2618;SDS011;1319;52.346;13.096;2023-03-01T10:48:03;6.17;;;5.10;;
2618;SDS011;1319;52.346;13.096;2023-03-01T10:50:29;7.03;;;5.07;;
2618;SDS011;1319;52.346;13.096;2023-03-01T10:53:03;6.13;;;4.70;;
2618;SDS011;1319;52.346;13.096;2023-03-01T10:55:31;7.13;;;4.57;;
2618;SDS011;1319;52.346;13.096;2023-03-01T11:00:54;6.30;;;4.53;;
2618;SDS011;1319;52.346;13.096;2023-03-01T11:04:03;7.93;;;4.65;;
2618;SDS011;1319;52.346;13.096;2023-03-01T11:08:39;5.20;;;4.60;;
2618;SDS011;1319;52.346;13.096;2023-03-01T11:13:58;6.07;;;4.78;;
2618;SDS011;1319;52.346;13.096;2023-03-01T11:18:55;6.40;;;4.80;;
2618;SDS011;1319;52.346;13.096;2023-03-01T11:21:21;7.68;;;4.75;;
2618;SDS011;1319;52.346;13.096;2023-03-01T11:23:46;5.57;;;4.60;;
2618;SDS011;1319;52.346;13.096;2023-03-01T11:26:12;6.22;;;4.40;;
2618;SDS011;1319;52.346;13.096;2023-03-01T11:28:38;4.90;;;4.40;;
2618;SDS011;1319;52.346;13.096;2023-03-01T11:31:05;5.03;;;4.10;;
2618;SDS011;1319;52.346;13.096;2023-03-01T11:38:27;6.18;;;4.60;;
2618;SDS011;1319;52.346;13.096;2023-03-01T11:54:01;4.95;;;4.32;;
2618;SDS011;1319;52.346;13.096;2023-03-01T11:56:31;4.18;;;3.78;;
2618;SDS011;1319;52.346;13.096;2023-03-01T11:59:03;3.95;;;3.55;;
2618;SDS011;1319;52.346;13.096;2023-03-01T12:09:34;5.57;;;4.07;;
2618;SDS011;1319;52.346;13.096;2023-03-01T12:12:11;4.90;;;4.40;;
2618;SDS011;1319;52.346;13.096;2023-03-01T12:14:58;7.28;;;4.25;;
2618;SDS011;1319;52.346;13.096;2023-03-01T12:22:29;7.88;;;4.72;;
2618;SDS011;1319;52.346;13.096;2023-03-01T12:32:54;8.40;;;4.40;;
2618;SDS011;1319;52.346;13.096;2023-03-01T12:35:36;6.68;;;4.38;;
2618;SDS011;1319;52.346;13.096;2023-03-01T12:38:08;7.32;;;4.85;;
2618;SDS011;1319;52.346;13.096;2023-03-01T12:41:00;6.68;;;4.75;;
2618;SDS011;1319;52.346;13.096;2023-03-01T12:48:48;8.10;;;5.07;;
2618;SDS011;1319;52.346;13.096;2023-03-01T12:51:16;9.50;;;4.72;;
2618;SDS011;1319;52.346;13.096;2023-03-01T12:53:44;6.10;;;5.45;;
2618;SDS011;1319;52.346;13.096;2023-03-01T12:56:14;7.95;;;5.13;;
2618;SDS011;1319;52.346;13.096;2023-03-01T12:58:58;8.95;;;5.47;;
2618;SDS011;1319;52.346;13.096;2023-03-01T13:04:03;7.47;;;5.10;;
2618;SDS011;1319;52.346;13.096;2023-03-01T13:06:36;7.97;;;5.18;;
2618;SDS011;1319;52.346;13.096;2023-03-01T13:11:31;5.28;;;4.60;;
2618;SDS011;1319;52.346;13.096;2023-03-01T13:16:41;6.22;;;4.53;;
2618;SDS011;1319;52.346;13.096;2023-03-01T13:19:13;8.05;;;4.60;;
2618;SDS011;1319;52.346;13.096;2023-03-01T13:21:40;13.30;;;8.20;;
2618;SDS011;1319;52.346;13.096;2023-03-01T13:24:23;7.93;;;4.78;;
2618;SDS011;1319;52.346;13.096;2023-03-01T13:29:54;9.50;;;5.00;;
2618;SDS011;1319;52.346;13.096;2023-03-01T13:32:27;5.15;;;4.47;;
2618;SDS011;1319;52.346;13.096;2023-03-01T13:37:39;6.45;;;4.72;;
2618;SDS011;1319;52.346;13.096;2023-03-01T13:42:54;4.50;;;4.10;;
2618;SDS011;1319;52.346;13.096;2023-03-01T13:47:58;8.65;;;4.22;;
2618;SDS011;1319;52.346;13.096;2023-03-01T13:50:27;5.38;;;4.32;;
2618;SDS011;1319;52.346;13.096;2023-03-01T13:52:55;4.15;;;3.75;;
2618;SDS011;1319;52.346;13.096;2023-03-01T13:55:23;5.88;;;3.83;;
2618;SDS011;1319;52.346;13.096;2023-03-01T13:57:56;8.10;;;3.97;;
2618;SDS011;1319;52.346;13.096;2023-03-01T14:03:00;5.22;;;3.58;;
2618;SDS011;1319;52.346;13.096;2023-03-01T14:05:25;5.25;;;3.92;;
2618;SDS011;1319;52.346;13.096;2023-03-01T14:07:51;4.35;;;3.85;;
2618;SDS011;1319;52.346;13.096;2023-03-01T14:10:16;6.80;;;3.80;;
2618;SDS011;1319;52.346;13.096;2023-03-01T14:17:52;6.95;;;3.85;;
2618;SDS011;1319;52.346;13.096;2023-03-01T14:22:46;4.90;;;3.72;;
2618;SDS011;1319;52.346;13.096;2023-03-01T14:25:28;3.78;;;3.47;;
2618;SDS011;1319;52.346;13.096;2023-03-01T14:28:02;4.55;;;3.72;;
2618;SDS011;1319;52.346;13.096;2023-03-01T14:30:38;5.75;;;3.58;;
2618;SDS011;1319;52.346;13.096;2023-03-01T14:33:06;3.50;;;3.20;;
2618;SDS011;1319;52.346;13.096;2023-03-01T14:35:42;5.03;;;3.20;;
2618;SDS011;1319;52.346;13.096;2023-03-01T14:38:19;6.45;;;3.78;;
2618;SDS011;1319;52.346;13.096;2023-03-01T14:40:45;6.90;;;3.60;;
2618;SDS011;1319;52.346;13.096;2023-03-01T14:43:11;4.18;;;3.58;;
2618;SDS011;1319;52.346;13.096;2023-03-01T14:45:37;3.78;;;3.30;;
2618;SDS011;1319;52.346;13.096;2023-03-01T14:48:03;3.95;;;3.60;;
2618;SDS011;1319;52.346;13.096;2023-03-01T14:50:32;7.05;;;4.07;;
2618;SDS011;1319;52.346;13.096;2023-03-01T14:52:59;5.05;;;3.90;;
2618;SDS011;1319;52.346;13.096;2023-03-01T14:57:54;4.50;;;3.50;;
2618;SDS011;1319;52.346;13.096;2023-03-01T15:00:23;6.00;;;3.72;;
2618;SDS011;1319;52.346;13.096;2023-03-01T15:02:50;4.25;;;3.50;;
2618;SDS011;1319;52.346;13.096;2023-03-01T15:05:15;5.50;;;3.60;;
2618;SDS011;1319;52.346;13.096;2023-03-01T15:07:43;5.60;;;3.50;;
2618;SDS011;1319;52.346;13.096;2023-03-01T15:10:19;4.17;;;3.50;;
2618;SDS011;1319;52.346;13.096;2023-03-01T15:12:45;5.83;;;3.80;;
2618;SDS011;1319;52.346;13.096;2023-03-01T15:15:30;5.10;;;3.50;;
2618;SDS011;1319;52.346;13.096;2023-03-01T15:17:56;3.63;;;3.10;;
2618;SDS011;1319;52.346;13.096;2023-03-01T15:20:24;5.00;;;3.53;;
2618;SDS011;1319;52.346;13.096;2023-03-01T15:22:51;6.03;;;3.60;;
2618;SDS011;1319;52.346;13.096;2023-03-01T15:25:17;7.63;;;3.43;;
2618;SDS011;1319;52.346;13.096;2023-03-01T15:27:46;8.17;;;3.70;;
2618;SDS011;1319;52.346;13.096;2023-03-01T15:30:20;5.93;;;3.73;;
2618;SDS011;1319;52.346;13.096;2023-03-01T15:32:46;6.47;;;3.70;;
2618;SDS011;1319;52.346;13.096;2023-03-01T15:37:55;5.33;;;4.00;;
2618;SDS011;1319;52.346;13.096;2023-03-01T15:42:56;11.00;;;4.13;;
2618;SDS011;1319;52.346;13.096;2023-03-01T15:45:23;7.50;;;3.87;;
2618;SDS011;1319;52.346;13.096;2023-03-01T15:47:50;6.27;;;4.20;;
2618;SDS011;1319;52.346;13.096;2023-03-01T15:50:24;5.57;;;4.00;;
2618;SDS011;1319;52.346;13.096;2023-03-01T15:52:50;8.60;;;3.90;;
2618;SDS011;1319;52.346;13.096;2023-03-01T15:55:26;5.87;;;4.07;;
2618;SDS011;1319;52.346;13.096;2023-03-01T16:00:49;8.40;;;4.30;;
2618;SDS011;1319;52.346;13.096;2023-03-01T16:03:16;5.67;;;4.17;;
2618;SDS011;1319;52.346;13.096;2023-03-01T16:05:46;6.90;;;3.90;;
2618;SDS011;1319;52.346;13.096;2023-03-01T16:08:11;10.03;;;4.10;;
2618;SDS011;1319;52.346;13.096;2023-03-01T16:10:37;8.07;;;4.30;;
2618;SDS011;1319;52.346;13.096;2023-03-01T16:13:02;5.70;;;4.20;;
2618;SDS011;1319;52.346;13.096;2023-03-01T16:15:32;8.60;;;3.90;;
2618;SDS011;1319;52.346;13.096;2023-03-01T16:17:59;7.30;;;3.93;;
2618;SDS011;1319;52.346;13.096;2023-03-01T16:20:24;5.07;;;3.70;;
2618;SDS011;1319;52.346;13.096;2023-03-01T16:22:50;6.50;;;4.10;;
2618;SDS011;1319;52.346;13.096;2023-03-01T16:25:16;6.43;;;3.90;;
2618;SDS011;1319;52.346;13.096;2023-03-01T16:27:42;6.60;;;3.93;;
2618;SDS011;1319;52.346;13.096;2023-03-01T16:30:09;3.87;;;3.20;;
2618;SDS011;1319;52.346;13.096;2023-03-01T16:32:41;4.47;;;3.23;;
2618;SDS011;1319;52.346;13.096;2023-03-01T16:35:07;4.73;;;3.40;;
2618;SDS011;1319;52.346;13.096;2023-03-01T16:37:33;7.43;;;2.70;;
2618;SDS011;1319;52.346;13.096;2023-03-01T16:39:58;4.43;;;3.23;;
2618;SDS011;1319;52.346;13.096;2023-03-01T16:42:24;3.10;;;2.80;;
2618;SDS011;1319;52.346;13.096;2023-03-01T16:44:54;6.77;;;3.57;;
2618;SDS011;1319;52.346;13.096;2023-03-01T16:47:19;5.43;;;2.80;;
2618;SDS011;1319;52.346;13.096;2023-03-01T16:49:44;4.53;;;2.90;;
2618;SDS011;1319;52.346;13.096;2023-03-01T16:52:09;4.60;;;3.10;;
2618;SDS011;1319;52.346;13.096;2023-03-01T16:54:35;6.13;;;3.10;;
2618;SDS011;1319;52.346;13.096;2023-03-01T16:57:00;4.33;;;3.07;;
2618;SDS011;1319;52.346;13.096;2023-03-01T16:59:25;5.03;;;3.00;;